Time;durP1;ratioP1;P1;durP2;ratioP2;P2;SDS_P1;SDS_P2;PMS_P1;PMS_P2;Temp;Humidity;BMP_temperature;BMP_pressure;BME280_temperature;BME280_humidity;BME280_pressure;Samples;Min_cycle;Max_cycle;Signal;HPM_P1;HPM_P2
2023/06/17 00:00:41;;;;;;;7.85;5.25;;;14.90;99.90;;;-144.05;54.26;56774.50;5057115;28;20043;-81
2023/06/17 00:03:06;;;;;;;6.93;5.43;;;14.90;99.90;;;-144.05;54.44;56732.03;5075312;28;20107;-83
2023/06/17 00:05:32;;;;;;;9.95;5.97;;;14.80;99.90;;;-144.05;55.31;56740.50;5075132;28;20052;-81
2023/06/17 00:07:58;;;;;;;9.82;5.40;;;14.80;99.90;;;-144.05;54.99;56772.38;5074779;28;20032;-77
2023/06/17 00:10:24;;;;;;;8.50;5.15;;;14.80;99.90;;;-144.05;54.94;56757.50;5075027;28;20032;-81
2023/06/17 00:12:50;;;;;;;6.45;5.00;;;14.80;99.90;;;-144.05;54.86;56757.50;5056682;28;20119;-82
2023/06/17 00:15:20;;;;;;;9.77;5.53;;;14.80;99.90;;;-144.05;55.06;56755.38;5077898;28;20024;-81
2023/06/17 00:17:47;;;;;;;10.40;6.10;;;14.70;99.90;;;-144.05;55.39;56761.75;5079730;28;20029;-82
2023/06/17 00:20:14;;;;;;;6.60;5.38;;;14.60;99.90;;;-144.05;55.96;56768.13;5080831;28;20028;-81
2023/06/17 00:22:43;;;;;;;10.10;5.80;;;14.60;99.90;;;-144.05;56.18;56742.63;5060620;28;20028;-82
2023/06/17 00:25:13;;;;;;;8.20;5.97;;;14.50;99.90;;;-144.05;56.49;56751.13;5077565;28;20032;-82
2023/06/17 00:27:40;;;;;;;7.43;6.18;;;14.50;99.90;;;-144.05;56.01;56768.13;5078133;28;20478;-83
2023/06/17 00:30:08;;;;;;;8.25;6.07;;;14.50;99.90;;;-144.05;56.25;56734.16;5060117;28;20036;-80
2023/06/17 00:32:34;;;;;;;9.57;6.10;;;14.50;99.90;;;-144.05;56.26;56751.13;5076464;28;20504;-78
2023/06/17 00:35:05;;;;;;;7.78;5.72;;;14.50;99.90;;;-144.05;56.31;56746.88;5061421;28;20075;-83
2023/06/17 00:37:32;;;;;;;8.38;5.93;;;14.50;99.90;;;-144.05;56.25;56759.63;5062704;28;20043;-83
2023/06/17 00:39:58;;;;;;;9.07;6.13;;;14.50;99.90;;;-144.05;56.54;56763.88;5062411;28;20021;-80
2023/06/17 00:42:24;;;;;;;9.82;6.50;;;14.50;99.90;;;-144.05;56.15;56761.75;5079986;28;20082;-83
2023/06/17 00:44:50;;;;;;;9.10;5.68;;;14.50;99.90;;;-144.05;56.39;56751.13;5061745;28;20222;-77
2023/06/17 00:47:16;;;;;;;10.10;5.47;;;14.50;99.90;;;-144.05;56.59;56742.63;5079356;28;20033;-80
2023/06/17 00:49:45;;;;;;;8.35;5.15;;;14.40;99.90;;;-144.05;56.52;56759.63;5060782;28;20390;-80
2023/06/17 00:52:15;;;;;;;7.45;5.75;;;14.40;99.90;;;-144.05;56.66;56753.25;5059108;28;20036;-81
2023/06/17 00:54:42;;;;;;;7.72;5.78;;;14.40;99.90;;;-144.05;56.68;56768.13;5058898;28;20032;-80
2023/06/17 00:57:13;;;;;;;7.18;5.68;;;14.30;99.90;;;-144.05;56.79;56761.75;5059383;28;20032;-81
2023/06/17 00:59:43;;;;;;;8.63;5.57;;;14.20;99.90;;;-144.05;56.96;56746.88;5058692;28;20066;-82
2023/06/17 01:02:13;;;;;;;8.40;5.75;;;14.20;99.90;;;-144.05;57.30;56753.25;5058954;28;20055;-79
2023/06/17 01:04:43;;;;;;;9.23;5.80;;;14.10;99.90;;;-144.05;57.15;56766.00;5058965;28;20028;-79
2023/06/17 01:07:47;;;;;;;7.28;5.20;;;14.10;99.90;;;-144.05;57.41;56753.25;5058119;28;20028;-82
2023/06/17 01:10:41;;;;;;;8.15;5.35;;;14.00;99.90;;;-144.05;57.32;56755.38;5058344;28;20078;-81
2023/06/17 01:13:07;;;;;;;11.05;5.50;;;14.10;99.90;;;-144.05;57.22;56763.88;5057835;28;20037;-81
2023/06/17 01:15:34;;;;;;;6.75;5.22;;;14.00;99.90;;;-144.05;57.51;56761.75;5057991;28;20033;-80
2023/06/17 01:18:04;;;;;;;8.15;5.53;;;13.90;99.90;;;-144.05;57.37;56774.50;5057974;28;20059;-80
2023/06/17 01:20:32;;;;;;;8.70;5.40;;;13.80;99.90;;;-144.05;57.82;56744.75;5075316;28;20103;-82
2023/06/17 01:23:01;;;;;;;8.55;5.40;;;13.70;99.90;;;-144.05;57.99;56776.63;5075733;28;20123;-79
2023/06/17 01:25:31;;;;;;;5.93;4.78;;;13.60;99.90;;;-144.05;58.42;56759.63;5074702;28;20082;-81
2023/06/17 01:28:13;;;;;;;7.32;4.60;;;13.50;99.90;;;-144.05;58.73;56751.13;5056852;28;20060;-80
2023/06/17 01:30:39;;;;;;;7.93;5.72;;;13.40;99.90;;;-144.05;59.24;56753.25;5073099;28;20123;-80
2023/06/17 01:33:05;;;;;;;10.02;5.47;;;13.40;99.90;;;-144.05;59.59;56768.13;5075236;28;20063;-81
2023/06/17 01:35:38;;;;;;;6.57;5.43;;;13.40;99.90;;;-144.05;60.01;56753.25;5057286;28;20469;-81
2023/06/17 01:38:27;;;;;;;9.90;5.90;;;13.30;99.90;;;-144.05;60.89;56738.41;5057400;28;20486;-79
2023/06/17 01:41:06;;;;;;;7.22;6.03;;;13.30;99.90;;;-144.05;60.80;56742.63;5057678;28;20028;-82
2023/06/17 01:43:35;;;;;;;11.00;6.45;;;13.30;99.90;;;-144.05;61.23;56727.78;5075781;28;20024;-81
2023/06/17 01:46:05;;;;;;;9.23;6.78;;;13.20;99.90;;;-144.05;61.74;56751.13;5057360;28;20029;-79
2023/06/17 01:48:32;;;;;;;8.88;7.25;;;13.20;99.90;;;-144.05;61.80;56774.50;5059472;28;20048;-81
2023/06/17 01:50:58;;;;;;;10.70;6.50;;;13.20;99.90;;;-144.05;61.89;56732.03;5077762;28;20123;-78
2023/06/17 01:53:24;;;;;;;8.50;6.22;;;13.10;99.90;;;-144.05;62.63;56757.50;5078247;28;20087;-82
2023/06/17 01:55:51;;;;;;;9.15;5.78;;;13.10;99.90;;;-144.05;61.75;56768.13;5059835;28;20128;-82
2023/06/17 01:58:17;;;;;;;9.85;6.07;;;13.20;99.90;;;-144.05;61.28;56759.63;5077393;28;20078;-83
2023/06/17 02:00:43;;;;;;;6.97;5.78;;;13.20;99.90;;;-144.05;61.03;56746.88;5078465;28;20029;-83
2023/06/17 02:03:08;;;;;;;8.30;5.72;;;13.30;99.90;;;-144.05;60.56;56772.38;5077514;28;20029;-80
2023/06/17 02:05:34;;;;;;;7.75;4.95;;;13.30;99.90;;;-144.05;60.38;56746.88;5076582;28;20028;-80
2023/06/17 02:08:04;;;;;;;9.05;4.85;;;13.30;99.90;;;-144.05;60.43;56763.88;5058438;28;20045;-80
2023/06/17 02:10:30;;;;;;;8.05;5.07;;;13.30;99.90;;;-144.05;60.52;56746.88;5076121;28;20291;-80
2023/06/17 02:12:56;;;;;;;9.63;6.97;;;13.10;99.90;;;-144.05;60.90;56751.13;5058028;28;20036;-82
2023/06/17 02:15:22;;;;;;;9.40;6.15;;;13.00;99.90;;;-144.05;61.37;56768.13;5075588;28;20025;-82
2023/06/17 02:17:48;;;;;;;8.60;5.70;;;13.00;99.90;;;-144.05;61.30;56729.91;5075640;28;20185;-82
2023/06/17 02:20:14;;;;;;;7.47;5.60;;;12.90;99.90;;;-144.05;61.60;56727.78;5075205;28;20059;-83
2023/06/17 02:22:40;;;;;;;7.95;5.50;;;12.90;99.90;;;-144.05;61.82;56766.00;5077617;28;20028;-82
2023/06/17 02:25:06;;;;;;;7.88;5.70;;;12.80;99.90;;;-144.05;62.08;56755.38;5057723;28;20035;-80
2023/06/17 02:27:32;;;;;;;8.85;6.00;;;12.70;99.90;;;-144.05;62.18;56736.28;5075738;28;20031;-82
2023/06/17 02:29:58;;;;;;;7.65;6.20;;;12.70;99.90;;;-144.05;62.50;56738.41;5075244;28;20032;-82
2023/06/17 02:32:24;;;;;;;7.30;5.80;;;12.60;99.90;;;-144.05;62.85;56751.13;5056908;28;20369;-81
2023/06/17 02:34:50;;;;;;;8.32;5.95;;;12.50;99.90;;;-144.05;63.20;56744.75;5075628;28;20060;-80
2023/06/17 02:37:16;;;;;;;7.35;5.85;;;12.50;99.90;;;-144.05;63.30;56768.13;5072236;28;20052;-80
2023/06/17 02:39:42;;;;;;;8.35;5.63;;;12.40;99.90;;;-144.05;63.52;56770.25;5074210;28;20028;-80
2023/06/17 02:42:09;;;;;;;10.10;5.80;;;12.40;99.90;;;-144.05;63.91;56753.25;5056716;28;20397;-81
2023/06/17 02:44:35;;;;;;;7.03;6.15;;;12.40;99.90;;;-144.05;64.14;56746.88;5075020;28;20485;-79
2023/06/17 02:47:02;;;;;;;8.13;6.38;;;12.40;99.90;;;-144.05;64.50;56772.38;5074223;28;20031;-81
2023/06/17 02:49:28;;;;;;;7.93;5.85;;;12.40;99.90;;;-144.05;64.73;56755.38;5073969;28;20400;-80
2023/06/17 02:51:54;;;;;;;6.63;5.30;;;12.40;99.90;;;-144.05;64.62;56770.25;5056209;28;20034;-80
2023/06/17 02:54:20;;;;;;;9.25;5.80;;;12.30;99.90;;;-144.05;64.84;56729.91;5056736;28;20393;-81
2023/06/17 02:56:45;;;;;;;9.10;6.40;;;12.30;99.90;;;-144.05;64.94;56740.50;5072555;28;20051;-79
2023/06/17 02:59:15;;;;;;;10.98;6.75;;;12.30;99.90;;;-144.05;65.32;56780.88;5074285;28;20111;-82
2023/06/17 03:01:43;;;;;;;10.85;6.50;;;12.30;99.90;;;-144.05;65.29;56755.38;5073836;28;20064;-82
2023/06/17 03:04:12;;;;;;;7.78;6.43;;;12.20;99.90;;;-144.05;65.34;56763.88;5056831;28;20032;-80
2023/06/17 03:06:41;;;;;;;7.82;6.10;;;12.20;99.90;;;-144.05;65.45;56768.13;5059225;28;20039;-82
2023/06/17 03:09:11;;;;;;;9.40;6.00;;;12.20;99.90;;;-144.05;65.71;56734.16;5078386;28;20028;-82
2023/06/17 03:11:37;;;;;;;10.00;6.07;;;12.10;99.90;;;-144.05;65.74;56746.88;5075646;28;20028;-83
2023/06/17 03:14:03;;;;;;;8.93;6.18;;;12.00;99.90;;;-144.05;66.04;56763.88;5076328;28;20033;-84
2023/06/17 03:16:33;;;;;;;9.10;6.82;;;12.00;99.90;;;-144.05;66.04;56744.75;5075788;28;20070;-82
2023/06/17 03:19:01;;;;;;;8.55;6.10;;;12.00;99.90;;;-144.05;66.54;56755.38;5057375;28;20036;-83
2023/06/17 03:21:30;;;;;;;8.88;6.43;;;11.90;99.90;;;-144.05;66.82;56761.75;5057055;28;20081;-82
2023/06/17 03:24:00;;;;;;;8.63;6.10;;;11.90;99.90;;;-144.05;66.80;56776.63;5074763;28;20017;-82
2023/06/17 03:26:27;;;;;;;8.13;5.90;;;11.90;99.90;;;-144.05;66.77;56746.88;5073766;28;20488;-80
2023/06/17 03:28:53;;;;;;;9.57;6.25;;;11.90;99.90;;;-144.05;66.61;56772.38;5055728;28;20036;-82
2023/06/17 03:31:21;;;;;;;7.07;5.47;;;11.90;99.90;;;-144.05;66.85;56757.50;5073696;28;20028;-80
2023/06/17 03:33:54;;;;;;;8.77;6.15;;;11.90;99.90;;;-144.05;66.76;56770.25;5073291;28;20024;-80
2023/06/17 03:36:30;;;;;;;7.68;5.93;;;11.90;99.90;;;-144.05;66.88;56772.38;5054468;28;20512;-81
2023/06/17 03:38:58;;;;;;;7.50;5.72;;;11.90;99.90;;;-144.05;66.98;56749.00;5071092;28;20036;-80
2023/06/17 03:41:26;;;;;;;6.75;5.35;;;11.90;99.90;;;-144.05;66.88;56768.13;5054568;28;20044;-82
2023/06/17 03:43:52;;;;;;;8.68;6.53;;;11.90;99.90;;;-144.05;66.70;56757.50;5055150;28;20024;-81
2023/06/17 03:46:19;;;;;;;8.98;5.97;;;11.90;99.90;;;-144.05;66.76;56755.38;5073031;28;20024;-81
2023/06/17 03:48:46;;;;;;;9.13;6.07;;;11.90;99.90;;;-144.05;66.55;56778.75;5060602;28;20132;-82
2023/06/17 03:51:12;;;;;;;6.55;5.32;;;11.90;99.90;;;-144.05;66.21;56770.25;5081165;28;20029;-81
2023/06/17 03:53:37;;;;;;;7.90;5.53;;;11.90;99.90;;;-144.05;66.17;56763.88;5080385;28;20035;-82
2023/06/17 03:56:04;;;;;;;8.52;6.53;;;11.90;99.90;;;-144.05;65.94;56772.38;5063834;28;20036;-81
2023/06/17 03:58:30;;;;;;;8.00;6.10;;;11.90;99.90;;;-144.05;65.95;56761.75;5063430;28;20028;-81
2023/06/17 04:00:56;;;;;;;7.35;5.65;;;11.90;99.90;;;-144.05;65.73;56763.88;5062447;28;20033;-79
2023/06/17 04:03:23;;;;;;;8.07;5.13;;;12.00;99.90;;;-144.05;65.77;56742.63;5089486;28;20017;-82
2023/06/17 04:05:49;;;;;;;9.38;6.03;;;12.00;99.90;;;-144.05;65.85;56757.50;5068135;28;20060;-82
2023/06/17 04:08:17;;;;;;;7.85;5.93;;;12.00;99.90;;;-144.05;65.83;56729.91;5082170;28;20037;-83
2023/06/17 04:10:43;;;;;;;7.28;5.45;;;12.00;99.90;;;-144.05;65.55;56749.00;5064430;28;20024;-82
2023/06/17 04:13:09;;;;;;;9.73;6.30;;;12.10;99.90;;;-144.05;65.44;56772.38;5082497;28;20082;-82
2023/06/17 04:15:35;;;;;;;8.93;6.35;;;12.10;99.90;;;-144.05;65.58;56774.50;5080758;28;20037;-82
2023/06/17 04:18:02;;;;;;;7.72;6.35;;;12.20;99.90;;;-144.05;65.50;56785.13;5061994;28;20036;-82
2023/06/17 04:20:29;;;;;;;9.35;6.18;;;12.20;99.90;;;-144.05;65.64;56780.88;5076800;28;20412;-79
2023/06/17 04:22:55;;;;;;;7.55;5.80;;;12.20;99.90;;;-144.05;65.97;56751.13;5078503;28;20116;-81
2023/06/17 04:25:22;;;;;;;8.27;5.90;;;12.30;99.90;;;-144.05;65.56;56759.63;5077338;28;20122;-82
2023/06/17 04:27:48;;;;;;;11.15;7.25;;;12.30;99.90;;;-144.05;65.41;56759.63;5058715;28;20497;-80
2023/06/17 04:30:15;;;;;;;7.18;5.43;;;12.40;99.90;;;-144.05;64.91;56770.25;5057646;28;20032;-80
2023/06/17 04:32:42;;;;;;;6.18;5.30;;;12.50;99.90;;;-144.05;64.88;56746.88;5075936;28;20089;-82
2023/06/17 04:35:10;;;;;;;11.45;6.43;;;12.60;99.90;;;-144.05;64.43;56740.50;5059370;28;20032;-82
2023/06/17 04:37:37;;;;;;;8.00;5.63;;;12.80;99.90;;;-144.05;64.21;56736.28;5059313;28;20062;-79
2023/06/17 04:40:12;;;;;;;8.02;5.93;;;13.00;99.90;;;-144.05;64.18;56740.50;5061256;28;20069;-81
2023/06/17 04:42:44;;;;;;;8.50;6.30;;;13.20;99.90;;;-144.05;63.35;56734.16;5078244;28;20025;-81
2023/06/17 04:45:11;;;;;;;8.52;6.45;;;13.40;99.90;;;-144.05;62.59;56761.75;5060567;28;20025;-82
2023/06/17 04:47:37;;;;;;;9.27;5.80;;;13.70;99.90;;;-144.05;61.94;56755.38;5079391;28;20477;-81
2023/06/17 04:50:05;;;;;;;7.55;5.38;;;13.90;99.90;;;-144.05;61.40;56749.00;5062879;28;20028;-81
2023/06/17 04:52:34;;;;;;;7.78;5.43;;;14.10;99.90;;;-144.05;60.78;56736.28;5061275;28;20063;-82
2023/06/17 04:55:00;;;;;;;8.05;5.78;;;14.40;99.90;;;-144.05;60.09;56757.50;5060404;28;20036;-81
2023/06/17 04:57:26;;;;;;;7.80;6.00;;;14.60;99.90;;;-144.05;58.97;56753.25;5078251;28;20020;-81
2023/06/17 04:59:51;;;;;;;7.88;5.95;;;14.90;99.90;;;-144.05;58.13;56751.13;5074804;28;20033;-78
2023/06/17 05:02:17;;;;;;;7.57;5.60;;;15.20;99.90;;;-144.05;56.82;56753.25;5073797;28;20525;-80
2023/06/17 05:04:43;;;;;;;9.98;5.78;;;15.50;99.90;;;-144.05;55.94;56753.25;5074113;28;20040;-80
2023/06/17 05:07:09;;;;;;;13.45;6.40;;;15.70;99.90;;;-144.05;54.27;56759.63;5075776;28;20060;-78
2023/06/17 05:09:35;;;;;;;9.02;6.70;;;15.90;99.90;;;-144.05;52.94;56742.63;5077036;28;20036;-79
2023/06/17 05:12:01;;;;;;;8.32;6.25;;;16.10;99.90;;;-144.05;52.68;56763.88;5057792;28;20039;-79
2023/06/17 05:14:27;;;;;;;7.72;5.70;;;16.20;99.90;;;-144.05;51.98;56768.13;5060883;28;20029;-83
2023/06/17 05:16:53;;;;;;;9.48;6.15;;;16.40;99.90;;;-144.05;50.80;56763.88;5081529;28;20052;-83
2023/06/17 05:19:19;;;;;;;8.05;5.70;;;16.60;99.90;;;-144.05;50.30;56776.63;5080412;28;20029;-82
2023/06/17 05:21:45;;;;;;;8.60;5.80;;;16.90;99.90;;;-144.05;49.64;56772.38;5062875;28;20522;-83
2023/06/17 05:24:10;;;;;;;7.82;5.78;;;17.10;99.90;;;-144.05;49.16;56772.38;5078982;28;20025;-82
2023/06/17 05:26:36;;;;;;;8.88;5.75;;;17.30;99.90;;;-144.05;48.85;56772.38;5059032;28;20028;-82
2023/06/17 05:29:02;;;;;;;8.32;6.15;;;17.50;99.90;;;-144.05;48.15;56772.38;5074299;28;20029;-78
2023/06/17 05:31:28;;;;;;;21.42;6.78;;;17.80;99.90;;;-144.05;47.78;56789.38;5057132;28;20398;-79
2023/06/17 05:33:54;;;;;;;14.52;7.10;;;18.10;99.90;;;-144.05;47.48;56789.38;5079564;28;20028;-80
2023/06/17 05:36:20;;;;;;;14.63;6.32;;;18.30;99.90;;;-144.05;47.27;56783.00;5062652;28;20383;-79
2023/06/17 05:38:46;;;;;;;9.05;5.85;;;18.50;99.90;;;-144.05;46.88;56787.25;5079791;28;20032;-82
2023/06/17 05:41:11;;;;;;;6.60;4.90;;;18.70;99.90;;;-144.05;46.69;56761.75;5080218;28;20028;-83
2023/06/17 05:43:37;;;;;;;8.57;5.35;;;18.90;99.90;;;-144.05;45.73;56806.34;5078833;28;20063;-81
2023/06/17 05:46:03;;;;;;;7.65;5.95;;;19.10;99.90;;;-144.05;45.14;56804.22;5078288;28;20398;-80
2023/06/17 05:48:29;;;;;;;8.68;5.50;;;19.30;99.90;;;-144.05;45.08;56799.97;5078417;28;20141;-82
2023/06/17 05:50:55;;;;;;;8.88;5.63;;;19.50;99.90;;;-144.05;44.46;56802.09;5078858;28;20486;-82
2023/06/17 05:53:21;;;;;;;7.80;5.47;;;19.70;99.90;;;-144.05;43.98;56774.50;5078402;28;20037;-80
2023/06/17 05:55:46;;;;;;;9.90;5.53;;;19.90;99.90;;;-144.05;43.45;56810.59;5078749;28;20024;-80
2023/06/17 05:58:12;;;;;;;9.70;5.75;;;20.10;99.90;;;-144.05;42.82;56821.22;5060342;28;20024;-83
2023/06/17 06:00:38;;;;;;;7.78;5.00;;;20.30;99.90;;;-144.05;42.01;56810.59;5078481;28;20028;-81
2023/06/17 06:03:04;;;;;;;8.52;5.40;;;20.60;99.90;;;-144.05;41.21;56810.59;5076652;28;20028;-81
2023/06/17 06:05:30;;;;;;;7.97;5.05;;;20.90;99.90;;;-144.05;41.07;56812.72;5075679;28;20081;-80
2023/06/17 06:07:56;;;;;;;8.05;5.50;;;21.20;99.90;;;-144.05;39.88;56831.84;5075725;28;20036;-82
2023/06/17 06:10:22;;;;;;;7.00;5.35;;;21.40;99.90;;;-144.05;39.19;56819.09;5060012;28;20035;-80
2023/06/17 06:12:50;;;;;;;11.13;5.90;;;21.50;99.90;;;-144.05;38.80;56842.47;5077388;28;20428;-80
2023/06/17 06:15:16;;;;;;;9.52;6.05;;;21.70;99.90;;;-144.05;37.15;56863.69;5076421;28;20028;-81
2023/06/17 06:17:42;;;;;;;9.18;5.28;;;21.80;99.90;;;-144.05;37.17;56814.84;5059977;28;20036;-80
2023/06/17 06:20:08;;;;;;;7.75;5.00;;;21.90;99.90;;;-144.05;37.30;56831.84;5077127;28;20021;-81
2023/06/17 06:22:34;;;;;;;6.93;4.80;;;22.00;99.90;;;-144.05;37.65;56842.47;5078298;28;20085;-81
2023/06/17 06:24:59;;;;;;;8.70;4.75;;;22.40;99.90;;;-144.05;36.98;56850.97;5077193;28;20111;-80
2023/06/17 06:27:25;;;;;;;7.57;5.00;;;22.60;99.20;;;-144.05;36.37;56846.72;5060499;28;20505;-81
2023/06/17 06:29:51;;;;;;;7.63;4.80;;;22.70;98.60;;;-144.05;36.47;56833.97;5078884;28;20028;-82
2023/06/17 06:32:17;;;;;;;6.35;4.78;;;22.90;97.60;;;-144.05;36.03;56878.56;5060828;28;20446;-81
2023/06/17 06:34:45;;;;;;;5.80;4.55;;;23.10;97.00;;;-144.05;35.04;56863.69;5077255;28;20028;-82
2023/06/17 06:37:11;;;;;;;6.85;5.00;;;23.30;95.30;;;-144.05;33.64;56878.56;5080518;28;20036;-82
2023/06/17 06:39:37;;;;;;;9.05;4.80;;;23.10;92.70;;;-144.05;34.54;56842.47;5090864;28;20050;-81
2023/06/17 06:42:03;;;;;;;8.07;5.30;;;23.20;94.10;;;-144.05;34.03;56857.34;5091574;28;20031;-81
2023/06/17 06:44:29;;;;;;;7.82;4.30;;;23.40;92.30;;;-144.05;33.66;56855.22;5073092;28;20020;-82
2023/06/17 06:46:56;;;;;;;9.30;5.35;;;23.50;92.10;;;-144.05;32.52;56850.97;5093148;28;20040;-80
2023/06/17 06:49:22;;;;;;;11.85;5.07;;;23.40;88.10;;;-144.05;33.02;56863.69;5094111;28;20046;-81
2023/06/17 06:51:48;;;;;;;9.05;5.30;;;23.60;90.10;;;-144.05;32.87;56878.56;5088560;28;20031;-85
2023/06/17 06:54:14;;;;;;;6.68;4.60;;;23.40;89.60;;;-144.05;33.04;56861.56;5091639;28;20318;-83
2023/06/17 06:56:40;;;;;;;6.90;5.25;;;23.70;88.70;;;-144.05;33.56;56878.56;5092838;28;20033;-82
2023/06/17 06:59:05;;;;;;;7.80;5.40;;;23.70;89.90;;;-144.05;31.96;56863.69;5093353;28;20587;-82
2023/06/17 07:01:31;;;;;;;6.88;4.70;;;24.00;85.30;;;-144.05;32.42;56863.69;5092336;28;20039;-79
2023/06/17 07:03:58;;;;;;;9.10;6.13;;;24.00;84.80;;;-144.05;32.76;56859.47;5074160;28;20021;-83
2023/06/17 07:06:24;;;;;;;5.63;4.65;;;23.90;85.70;;;-144.05;32.74;56884.94;5074299;28;20024;-83
2023/06/17 07:08:50;;;;;;;7.43;5.28;;;24.20;87.20;;;-144.05;31.94;56882.81;5075852;28;20028;-82
2023/06/17 07:11:16;;;;;;;7.43;5.18;;;24.20;85.60;;;-144.05;32.31;56889.19;5093848;28;20026;-82
2023/06/17 07:13:42;;;;;;;7.65;5.43;;;24.20;85.10;;;-144.05;32.02;56901.94;5094386;28;20032;-81
2023/06/17 07:16:07;;;;;;;11.98;5.93;;;24.40;83.50;;;-144.05;32.90;56895.56;5076087;28;20036;-83
2023/06/17 07:18:33;;;;;;;9.63;5.65;;;24.20;85.60;;;-144.05;32.48;56897.69;5094300;28;20021;-81
2023/06/17 07:20:59;;;;;;;8.45;5.28;;;24.30;83.40;;;-144.05;32.03;56921.06;5093784;28;20036;-81
2023/06/17 07:23:25;;;;;;;6.10;5.15;;;24.60;83.20;;;-144.05;31.55;56908.31;5093952;28;20033;-80
2023/06/17 07:25:51;;;;;;;6.57;4.47;;;25.10;82.50;;;-144.05;31.30;56935.91;5093604;28;20039;-81
2023/06/17 07:28:17;;;;;;;8.18;4.20;;;25.30;82.50;;;-144.05;30.53;56925.28;5075521;28;20012;-81
2023/06/17 07:30:43;;;;;;;6.57;4.20;;;25.60;78.80;;;-144.05;29.76;56916.81;5090099;28;20024;-80
2023/06/17 07:33:09;;;;;;;7.32;4.60;;;25.70;76.30;;;-144.05;29.59;56933.78;5085537;28;20027;-78
2023/06/17 07:35:35;;;;;;;7.00;4.90;;;25.70;73.60;;;-144.05;30.17;56942.28;5082804;28;20020;-80
2023/06/17 07:38:01;;;;;;;5.55;4.18;;;25.70;75.80;;;-144.05;30.61;56957.16;5077827;28;20028;-80
2023/06/17 07:40:27;;;;;;;4.28;3.88;;;26.10;76.20;;;-144.05;29.22;56955.03;5079850;28;20029;-81
2023/06/17 07:42:53;;;;;;;4.35;3.95;;;25.80;73.50;;;-144.05;29.50;56965.66;5078157;28;20033;-80
2023/06/17 07:45:19;;;;;;;6.63;4.05;;;26.00;73.20;;;-144.05;29.70;56952.91;5059009;28;20032;-81
2023/06/17 07:47:45;;;;;;;6.45;4.55;;;26.10;73.90;;;-144.05;29.68;56978.41;5076427;28;20078;-81
2023/06/17 07:50:11;;;;;;;5.63;4.13;;;26.40;73.90;;;-144.05;29.48;56997.50;5076112;28;20021;-81
2023/06/17 07:52:37;;;;;;;5.10;4.13;;;26.80;72.30;;;-144.05;28.93;56999.63;5057488;28;20029;-81
2023/06/17 07:55:06;;;;;;;6.43;3.95;;;27.00;70.70;;;-144.05;28.30;57018.75;5057493;28;20067;-80
2023/06/17 07:57:32;;;;;;;6.97;4.18;;;27.10;69.40;;;-144.05;27.27;57012.38;5076114;28;20029;-79
2023/06/17 07:59:58;;;;;;;5.35;3.80;;;26.90;65.60;;;-144.05;28.26;56993.25;5057540;28;20051;-81
2023/06/17 08:02:24;;;;;;;7.18;3.60;;;27.20;68.10;;;-144.05;27.02;57023.00;5056893;28;20097;-80
2023/06/17 08:04:50;;;;;;;5.95;3.60;;;26.90;65.30;;;-144.05;27.25;56957.16;5076167;28;20085;-80
2023/06/17 08:07:16;;;;;;;4.43;3.45;;;27.00;65.30;;;-144.05;26.86;57014.50;5076048;28;20060;-80
2023/06/17 08:09:42;;;;;;;6.53;3.95;;;27.10;62.90;;;-144.05;27.18;57027.25;5075816;28;20031;-81
2023/06/17 08:12:08;;;;;;;6.43;3.80;;;27.30;63.30;;;-144.05;26.36;57029.38;5058348;28;20054;-80
2023/06/17 08:14:34;;;;;;;7.15;3.88;;;27.40;61.60;;;-144.05;26.66;57016.63;5058763;28;20447;-82
2023/06/17 08:17:00;;;;;;;5.45;3.75;;;27.60;62.30;;;-144.05;26.67;57025.13;5077530;28;20028;-81
2023/06/17 08:19:26;;;;;;;5.95;3.65;;;27.70;61.80;;;-144.05;26.12;57052.75;5076937;28;20516;-80
2023/06/17 08:21:51;;;;;;;8.00;3.75;;;27.80;61.40;;;-144.05;25.87;57046.38;5076587;28;20032;-81
2023/06/17 08:24:26;;;;;;;6.90;4.20;;;27.70;59.10;;;-144.05;25.30;57027.25;5077311;28;20020;-82
2023/06/17 08:26:54;;;;;;;8.40;3.90;;;27.70;58.00;;;-144.05;25.44;57025.13;5077422;28;20024;-81
2023/06/17 08:29:21;;;;;;;5.70;3.42;;;27.40;58.50;;;-144.05;26.78;57020.88;5057615;28;20028;-79
2023/06/17 08:31:51;;;;;;;5.72;3.78;;;27.40;60.70;;;-144.05;26.49;57050.63;5076319;28;20039;-80
2023/06/17 08:34:17;;;;;;;7.13;4.70;;;27.90;59.80;;;-144.05;25.88;57042.13;5058822;28;20029;-81
2023/06/17 08:36:49;;;;;;;6.28;4.10;;;27.80;57.40;;;-144.05;26.07;57046.38;5062108;28;20036;-82
2023/06/17 08:39:15;;;;;;;8.90;4.22;;;27.90;57.30;;;-144.05;25.20;57052.75;5079470;28;20032;-80
2023/06/17 08:41:42;;;;;;;4.88;4.07;;;28.10;56.70;;;-144.05;24.96;57056.97;5079210;28;20112;-78
2023/06/17 08:44:12;;;;;;;5.03;3.70;;;28.00;55.70;;;-144.05;25.33;57048.50;5079892;28;20427;-79
2023/06/17 08:46:43;;;;;;;5.25;3.45;;;28.10;56.30;;;-144.05;24.72;57048.50;5078974;28;20025;-83
2023/06/17 08:49:14;;;;;;;4.82;3.92;;;27.90;54.50;;;-144.05;24.70;57042.13;5078671;28;20405;-83
2023/06/17 08:51:42;;;;;;;6.38;4.25;;;28.00;55.50;;;-144.05;24.67;57035.75;5079663;28;20108;-81
2023/06/17 08:54:10;;;;;;;8.20;4.57;;;28.10;54.20;;;-144.05;24.96;57067.59;5060957;28;20143;-79
2023/06/17 08:56:37;;;;;;;8.65;4.50;;;28.20;55.90;;;-144.05;24.94;57080.34;5076590;28;20055;-81
2023/06/17 08:59:02;;;;;;;6.07;3.88;;;28.50;55.10;;;-144.05;24.34;57067.59;5079682;28;20086;-79
2023/06/17 09:01:28;;;;;;;7.38;4.35;;;28.70;53.60;;;-144.05;24.38;57086.72;5078695;28;20024;-81
2023/06/17 09:03:55;;;;;;;9.70;4.57;;;28.70;54.10;;;-144.05;24.39;57112.22;5080091;28;20047;-80
2023/06/17 09:06:29;;;;;;;8.98;5.18;;;29.10;54.10;;;-144.05;24.51;57124.97;5080217;28;20052;-82
2023/06/17 09:08:58;;;;;;;6.45;4.53;;;29.00;53.80;;;-144.05;24.00;57088.84;5080205;28;20449;-79
2023/06/17 09:11:30;;;;;;;8.35;4.40;;;28.80;52.10;;;-144.05;24.13;57097.34;5079015;28;20043;-80
2023/06/17 09:13:59;;;;;;;5.80;4.40;;;28.80;52.30;;;-144.05;24.04;57105.84;5079927;28;20033;-82
2023/06/17 09:16:26;;;;;;;6.90;5.57;;;29.00;52.90;;;-144.05;23.86;57107.97;5060906;28;20096;-82
2023/06/17 09:19:05;;;;;;;8.27;5.03;;;29.20;52.10;;;-144.05;23.52;57114.34;5080501;28;20349;-81
2023/06/17 09:21:32;;;;;;;6.13;4.32;;;29.20;51.30;;;-144.05;23.55;57095.22;5061492;28;20064;-79
2023/06/17 09:24:03;;;;;;;6.43;4.47;;;29.10;51.30;;;-144.05;23.44;57122.84;5079350;28;20029;-79
2023/06/17 09:26:44;;;;;;;6.95;4.00;;;29.10;49.90;;;-144.05;22.79;57107.97;5061382;28;20048;-80
2023/06/17 09:29:13;;;;;;;3.97;3.42;;;29.30;50.20;;;-144.05;22.17;57112.22;5080688;28;20052;-81
2023/06/17 09:31:52;;;;;;;7.75;4.13;;;29.20;47.70;;;-144.05;22.88;57129.22;5080179;28;20397;-80
2023/06/17 09:34:20;;;;;;;6.40;3.53;;;29.20;49.00;;;-144.05;22.46;57114.34;5062750;28;20043;-80
2023/06/17 09:36:55;;;;;;;6.90;3.75;;;29.30;48.60;;;-144.05;23.00;57080.34;5078352;28;20043;-81
2023/06/17 09:39:32;;;;;;;3.95;3.33;;;29.20;49.80;;;-144.05;22.46;57135.56;5062665;28;20128;-82
2023/06/17 09:42:10;;;;;;;6.30;3.58;;;29.40;47.40;;;-144.05;22.60;57129.22;5081758;28;20028;-83
2023/06/17 09:44:40;;;;;;;4.50;3.10;;;29.60;47.50;;;-144.05;22.34;57150.44;5082708;28;20052;-83
2023/06/17 09:47:08;;;;;;;4.20;3.20;;;29.70;47.00;;;-144.05;22.90;57112.22;5082429;28;20028;-82
2023/06/17 09:49:35;;;;;;;7.10;3.20;;;29.90;48.80;;;-144.05;22.25;57152.56;5082542;28;20036;-81
2023/06/17 09:52:05;;;;;;;8.63;3.28;;;30.00;47.30;;;-144.05;22.45;57186.56;5079834;28;20031;-82
2023/06/17 09:54:33;;;;;;;5.18;2.95;;;30.30;47.60;;;-144.05;22.32;57165.31;5064073;28;20044;-81
2023/06/17 09:57:03;;;;;;;3.88;2.95;;;30.20;46.70;;;-144.05;21.36;57197.19;5081668;28;20118;-81
2023/06/17 09:59:28;;;;;;;4.07;3.00;;;30.30;44.70;;;-144.05;21.83;57188.69;5062734;28;20509;-84
2023/06/17 10:01:54;;;;;;;3.60;2.83;;;30.70;46.50;;;-144.05;21.89;57203.56;5078878;28;20107;-81
2023/06/17 10:04:21;;;;;;;5.32;2.60;;;30.70;46.30;;;-144.05;21.92;57188.69;5078450;28;20540;-82
2023/06/17 10:06:51;;;;;;;3.67;2.72;;;30.70;46.00;;;-144.05;21.31;57190.81;5077411;28;20027;-80